Time;durP1;ratioP1;P1;durP2;ratioP2;P2;SDS_P1;SDS_P2;PMS_P1;PMS_P2;Temp;Humidity;BMP_temperature;BMP_pressure;BME280_temperature;BME280_humidity;BME280_pressure;Samples;Min_cycle;Max_cycle;Signal;HPM_P1;HPM_P2
2022/07/29 00:06:39;;;;;;;614.90;568.28;;;;;;;24.95;55.86;99621.75;353019;28;873;-77
2022/07/29 00:07:56;;;;;;;616.08;569.17;;;;;;;25.10;55.44;99621.09;344517;28;1365;-77
2022/07/29 00:08:25;;;;;;;617.33;570.33;;;;;;;24.88;55.80;99627.72;341794;28;1260;-78
2022/07/29 00:08:36;;;;;;;615.97;569.03;;;;;;;24.82;55.99;99620.31;341895;28;881;-76
2022/07/29 00:08:46;;;;;;;622.38;575.17;;;;;;;24.83;56.12;99618.47;341766;28;1285;-77
2022/07/29 00:08:57;;;;;;;626.73;579.33;;;;;;;24.85;56.02;99630.69;340333;28;880;-77
2022/07/29 00:09:07;;;;;;;630.53;582.95;;;;;;;24.87;55.97;99623.34;339337;29;1369;-77
2022/07/29 00:09:18;;;;;;;635.72;587.97;;;;;;;24.92;55.47;99622.06;343277;28;1268;-77
2022/07/29 00:09:28;;;;;;;642.70;594.77;;;;;;;24.94;56.04;99620.06;344858;28;1277;-77
2022/07/29 00:09:41;;;;;;;644.20;596.33;;;;;;;24.96;55.81;99620.78;340552;28;1527;-77
2022/07/29 00:09:52;;;;;;;638.50;590.90;;;;;;;24.97;55.76;99622.47;342432;28;1281;-78
2022/07/29 00:10:03;;;;;;;633.10;585.50;;;;;;;24.99;55.71;99620.47;345710;28;1459;-78
2022/07/29 00:10:14;;;;;;;635.17;587.47;;;;;;;24.98;55.58;99625.00;341698;28;1279;-78
2022/07/29 00:10:24;;;;;;;633.00;585.37;;;;;;;24.99;55.60;99624.00;343536;28;1332;-78
2022/07/29 00:11:10;;;;;;;630.05;582.60;;;;;;;24.95;55.91;99621.75;345887;28;1245;-78
2022/07/29 00:12:13;;;;;;;635.90;588.45;;;;;;;24.80;56.36;99626.81;340763;29;767;-77
2022/07/29 00:12:24;;;;;;;628.67;581.53;;;;;;;24.84;56.23;99623.66;338862;29;1342;-77
2022/07/29 00:14:53;;;;;;;629.28;582.03;;;;;;;24.80;56.48;99624.13;327296;30;1828;-77
2022/07/29 00:15:04;;;;;;;633.42;586.22;;;;;;;24.86;56.17;99632.38;320727;30;1103;-77
2022/07/29 00:15:15;;;;;;;637.00;589.65;;;;;;;24.89;56.14;99631.25;321531;30;1653;-77
2022/07/29 00:15:40;;;;;;;629.13;581.97;;;;;;;24.92;56.31;99630.94;320729;30;865;-77
2022/07/29 00:15:53;;;;;;;621.28;574.33;;;;;;;24.90;55.99;99632.94;320685;30;1415;-77
2022/07/29 00:16:04;;;;;;;627.78;580.33;;;;;;;24.92;56.10;99619.38;317225;31;1538;-77
2022/07/29 00:16:14;;;;;;;626.67;579.08;;;;;;;24.91;55.88;99628.41;323256;30;2106;-77
2022/07/29 00:20:32;;;;;;;629.88;582.88;;;;;;;24.73;56.76;99629.25;311928;31;3517;-78
2022/07/29 00:20:43;;;;;;;629.35;582.25;;;;;;;24.77;56.78;99627.94;310501;31;4195;-78
2022/07/29 00:20:53;;;;;;;628.40;581.10;;;;;;;24.79;56.65;99620.59;310575;31;796;-78
2022/07/29 00:21:04;;;;;;;629.47;582.20;;;;;;;24.79;56.82;99625.97;303996;32;1372;-78
2022/07/29 00:21:14;;;;;;;631.67;584.40;;;;;;;24.81;56.83;99623.13;304387;32;4548;-78
2022/07/29 00:21:25;;;;;;;626.53;579.20;;;;;;;24.84;56.63;99629.03;302145;32;3800;-78
2022/07/29 00:21:35;;;;;;;619.30;571.93;;;;;;;24.88;56.83;99633.06;300967;32;1241;-78
2022/07/29 00:21:46;;;;;;;610.50;563.25;;;;;;;24.93;56.54;99631.78;298293;32;4305;-78
2022/07/29 00:21:56;;;;;;;617.77;570.53;;;;;;;24.87;56.90;99623.34;297839;32;3412;-78
2022/07/29 00:22:07;;;;;;;616.80;569.67;;;;;;;24.83;56.92;99632.69;300961;32;1320;-78
2022/07/29 00:22:17;;;;;;;622.20;574.83;;;;;;;24.76;57.31;99628.09;295021;33;3178;-78
2022/07/29 00:22:31;;;;;;;618.20;570.92;;;;;;;24.72;57.13;99624.88;297456;32;3806;-78
2022/07/29 00:22:41;;;;;;;618.72;571.78;;;;;;;24.70;57.11;99626.88;296689;33;5883;-78
2022/07/29 00:22:52;;;;;;;616.80;569.90;;;;;;;24.72;57.34;99630.25;292516;33;1229;-78
2022/07/29 00:23:03;;;;;;;623.38;576.17;;;;;;;24.73;57.28;99631.06;293739;33;6212;-78
2022/07/29 00:23:13;;;;;;;624.72;577.15;;;;;;;24.75;57.05;99629.94;294298;33;6337;-78
2022/07/29 00:23:24;;;;;;;631.33;583.77;;;;;;;24.76;57.12;99630.78;294857;33;6384;-78
2022/07/29 00:23:34;;;;;;;626.03;578.55;;;;;;;24.78;57.03;99626.94;293806;33;1346;-78
2022/07/29 00:23:45;;;;;;;622.13;574.97;;;;;;;24.82;56.83;99631.00;288677;33;5098;-78
2022/07/29 00:23:55;;;;;;;616.67;569.65;;;;;;;24.85;56.86;99622.66;285648;34;5767;-78
2022/07/29 00:24:06;;;;;;;617.70;570.50;;;;;;;24.88;56.87;99627.72;287252;34;809;-78
2022/07/29 00:24:16;;;;;;;618.67;571.38;;;;;;;24.93;56.62;99629.94;289758;33;4743;-78
2022/07/29 00:24:27;;;;;;;622.13;574.73;;;;;;;24.95;56.75;99624.44;288198;33;4422;-78
2022/07/29 00:25:30;;;;;;;608.67;561.92;;;;;;;24.83;56.93;99626.50;286267;34;792;-78
2022/07/29 00:25:42;;;;;;;618.10;571.28;;;;;;;24.72;57.56;99632.91;278786;35;9525;-78
2022/07/29 00:27:46;;;;;;;557.31;507.87;;;;;;;24.84;57.42;99622.81;2488930;27;19944;-77
2022/07/29 00:27:56;;;;;;;621.72;574.67;;;;;;;24.86;57.38;99637.75;353511;28;1289;-77
2022/07/29 00:28:22;;;;;;;619.97;572.90;;;;;;;24.91;57.44;99623.06;349037;28;1313;-77
2022/07/29 00:28:34;;;;;;;611.60;565.10;;;;;;;24.93;56.98;99631.78;348691;28;864;-77
2022/07/29 00:33:24;;;;;;;574.30;528.45;;;;;;;24.95;57.46;99625.28;346851;28;842;-77
2022/07/29 00:33:40;;;;;;;561.03;515.50;;;;;;;24.88;57.33;99629.56;344302;28;1701;-77
2022/07/29 00:33:52;;;;;;;565.50;519.95;;;;;;;24.87;57.69;99627.88;344314;28;940;-77
2022/07/29 00:36:37;;;;;;;586.13;540.15;;;;;;;24.65;58.44;99623.84;338255;29;1180;-78
2022/07/29 00:38:31;;;;;;;622.17;575.20;;;;;;;24.54;58.61;99616.03;330640;29;1832;-77
2022/07/29 00:39:02;;;;;;;639.67;592.40;;;;;;;24.51;58.76;99613.66;330697;29;1878;-77
2022/07/29 00:41:24;;;;;;;644.65;597.35;;;;;;;24.42;59.50;99622.59;324342;30;726;-77
2022/07/29 01:06:11;;;;;;;435.05;392.17;;;;;;;24.84;59.10;99622.81;322443;30;2913;-77
2022/07/29 01:06:22;;;;;;;424.92;382.25;;;;;;;24.81;59.55;99626.66;320027;30;3026;-78
2022/07/29 01:06:33;;;;;;;432.70;389.52;;;;;;;24.77;59.72;99622.59;317933;30;2835;-78
2022/07/29 01:06:43;;;;;;;437.17;394.00;;;;;;;24.77;59.67;99627.09;317410;31;881;-78
2022/07/29 01:06:55;;;;;;;435.00;391.75;;;;;;;24.75;59.58;99624.59;319431;30;2471;-78
2022/07/29 01:07:05;;;;;;;428.85;385.73;;;;;;;24.77;59.54;99630.63;313512;31;1862;-78
2022/07/29 01:07:15;;;;;;;430.00;386.80;;;;;;;24.78;59.77;99626.94;309470;31;733;-78
2022/07/29 01:07:26;;;;;;;429.30;385.90;;;;;;;24.79;59.68;99625.13;308156;31;2776;-78
2022/07/29 01:07:36;;;;;;;436.13;392.55;;;;;;;24.82;59.54;99624.81;311533;31;3258;-78
2022/07/29 01:07:49;;;;;;;438.87;395.17;;;;;;;24.78;59.74;99624.28;313925;31;4037;-78
2022/07/29 01:07:59;;;;;;;444.27;400.33;;;;;;;24.81;59.65;99629.31;304054;32;1413;-78
2022/07/29 01:08:11;;;;;;;445.47;401.43;;;;;;;24.82;59.43;99628.34;301407;32;5538;-78
2022/07/29 01:08:21;;;;;;;443.33;399.63;;;;;;;24.83;59.69;99627.34;298296;32;5263;-78
2022/07/29 01:08:32;;;;;;;437.70;394.17;;;;;;;24.81;59.37;99623.97;299891;32;1353;-78
2022/07/29 01:08:42;;;;;;;434.20;390.85;;;;;;;24.80;59.92;99632.16;303966;32;913;-78
2022/07/29 01:08:53;;;;;;;432.60;389.48;;;;;;;24.74;59.84;99620.22;302867;32;3945;-78
2022/07/29 01:09:03;;;;;;;433.00;389.73;;;;;;;24.70;59.99;99616.16;299963;32;3091;-78
2022/07/29 01:09:14;;;;;;;436.10;392.75;;;;;;;24.69;59.97;99625.22;296923;33;1383;-78
2022/07/29 01:09:24;;;;;;;437.53;394.17;;;;;;;24.63;60.41;99623.16;299568;32;3222;-78
2022/07/29 01:09:35;;;;;;;438.60;395.15;;;;;;;24.58;60.57;99621.91;298364;32;4104;-78
2022/07/29 01:09:45;;;;;;;441.30;397.60;;;;;;;24.50;60.47;99626.19;295767;33;1326;-78
2022/07/29 01:09:56;;;;;;;445.35;401.52;;;;;;;24.51;60.34;99627.88;294536;33;5055;-77
2022/07/29 01:10:07;;;;;;;446.73;402.97;;;;;;;24.50;60.73;99634.22;291257;33;6308;-78
2022/07/29 01:10:18;;;;;;;440.38;396.85;;;;;;;24.50;60.64;99623.50;288022;33;7185;-78
2022/07/29 01:10:29;;;;;;;436.88;393.30;;;;;;;24.51;60.56;99629.72;288259;34;954;-78
2022/07/29 01:10:39;;;;;;;445.37;401.30;;;;;;;24.55;60.61;99620.38;287663;34;7344;-78
2022/07/29 01:10:50;;;;;;;449.92;405.92;;;;;;;24.61;60.42;99626.97;286178;34;5791;-78
2022/07/29 01:11:00;;;;;;;454.17;410.07;;;;;;;24.62;60.20;99624.13;284414;34;1231;-79
2022/07/29 01:11:11;;;;;;;450.02;406.30;;;;;;;24.65;60.25;99629.19;284652;34;5191;-77
2022/07/29 01:11:21;;;;;;;451.60;407.90;;;;;;;24.66;60.00;99620.16;283705;34;4523;-77
2022/07/29 01:11:32;;;;;;;452.85;409.02;;;;;;;24.68;60.21;99620.84;281773;34;6088;-79
2022/07/29 01:11:43;;;;;;;455.33;411.20;;;;;;;24.70;60.19;99626.88;275529;35;1495;-77
2022/07/29 01:11:53;;;;;;;458.02;413.48;;;;;;;24.73;60.29;99626.56;277004;35;6215;-77
2022/07/29 01:12:04;;;;;;;457.40;412.85;;;;;;;24.75;60.12;99629.09;277535;35;7936;-78
2022/07/29 01:14:24;;;;;;;406.22;360.26;;;;;;;24.87;59.59;99627.88;2491738;27;20480;-77
2022/07/29 01:14:34;;;;;;;436.10;393.03;;;;;;;24.87;59.73;99628.72;352821;28;1353;-77
2022/07/29 01:14:45;;;;;;;436.98;393.67;;;;;;;24.84;59.90;99628.19;349102;28;1289;-77
2022/07/29 01:14:55;;;;;;;441.43;397.97;;;;;;;24.82;59.59;99624.81;351300;28;1216;-77
2022/07/29 01:15:07;;;;;;;440.17;396.73;;;;;;;24.84;59.50;99629.03;348825;28;1451;-77
2022/07/29 01:15:17;;;;;;;437.63;394.17;;;;;;;24.85;59.83;99622.66;348439;28;943;-77
2022/07/29 01:15:28;;;;;;;441.70;398.23;;;;;;;24.88;59.40;99626.88;350304;28;832;-77
2022/07/29 01:15:43;;;;;;;438.17;394.93;;;;;;;24.91;59.52;99623.06;349602;28;1423;-77
2022/07/29 01:15:58;;;;;;;433.23;390.13;;;;;;;24.95;59.33;99624.44;346022;28;1417;-77
2022/07/29 01:16:20;;;;;;;436.95;393.55;;;;;;;24.93;59.35;99632.63;348752;28;1353;-77
2022/07/29 01:16:31;;;;;;;433.75;390.83;;;;;;;24.91;59.66;99629.25;348674;28;1384;-77
2022/07/29 01:16:51;;;;;;;432.65;389.90;;;;;;;24.84;59.64;99628.19;344686;28;1537;-78
2022/07/29 01:17:26;;;;;;;436.80;393.70;;;;;;;24.79;60.12;99631.31;346463;28;1312;-78
2022/07/29 01:17:39;;;;;;;429.92;387.23;;;;;;;24.78;60.02;99624.28;343139;28;1445;-77
2022/07/29 01:18:03;;;;;;;435.42;392.63;;;;;;;24.75;60.15;99629.94;344405;28;1144;-77
2022/07/29 01:18:26;;;;;;;436.75;393.58;;;;;;;24.74;60.29;99630.09;343158;28;1097;-77
2022/07/29 01:18:39;;;;;;;425.70;383.42;;;;;;;24.77;60.20;99633.31;345937;28;1307;-77
2022/07/29 01:18:49;;;;;;;424.15;381.85;;;;;;;24.80;60.19;99633.00;345867;28;1416;-77
2022/07/29 01:19:06;;;;;;;422.97;380.47;;;;;;;24.81;60.19;99634.69;343197;28;1216;-77
2022/07/29 01:19:22;;;;;;;425.13;382.10;;;;;;;24.85;60.03;99633.38;342456;28;1314;-77
2022/07/29 01:19:47;;;;;;;426.70;384.02;;;;;;;24.88;59.92;99635.75;344634;28;1386;-77
2022/07/29 01:20:01;;;;;;;426.17;383.40;;;;;;;24.92;59.98;99630.94;344302;28;952;-77
2022/07/29 01:20:29;;;;;;;427.13;384.23;;;;;;;24.94;59.93;99636.97;344624;28;1256;-77
2022/07/29 01:20:57;;;;;;;428.08;385.73;;;;;;;24.93;60.02;99631.78;346165;28;929;-77
2022/07/29 01:21:42;;;;;;;424.90;382.42;;;;;;;24.90;60.19;99637.44;340667;28;1455;-77
2022/07/29 01:21:57;;;;;;;429.60;387.25;;;;;;;24.92;59.79;99635.44;339747;29;1383;-77
2022/07/29 01:22:26;;;;;;;428.27;385.75;;;;;;;24.91;60.06;99634.59;337890;29;1327;-78
2022/07/29 01:23:10;;;;;;;424.13;381.55;;;;;;;24.91;59.98;99633.75;335070;29;1288;-78
2022/07/29 01:23:43;;;;;;;425.88;383.45;;;;;;;24.93;60.00;99637.97;329576;29;1938;-78
2022/07/29 01:23:59;;;;;;;419.67;377.90;;;;;;;24.98;59.80;99634.88;328413;29;1205;-78
2022/07/29 01:24:32;;;;;;;414.70;373.05;;;;;;;25.02;59.86;99641.59;328838;30;1464;-78
2022/07/29 01:25:01;;;;;;;418.00;376.08;;;;;;;25.08;59.82;99641.00;321939;30;912;-78
2022/07/29 01:25:38;;;;;;;423.63;381.33;;;;;;;25.08;59.65;99636.47;319443;30;1267;-78
2022/07/29 01:25:51;;;;;;;416.75;375.05;;;;;;;25.13;59.78;99633.31;320343;30;1269;-78
2022/07/29 01:26:28;;;;;;;414.05;372.23;;;;;;;25.11;59.44;99636.16;320511;30;1256;-78
2022/07/29 01:26:46;;;;;;;414.77;373.20;;;;;;;25.15;59.51;99636.66;313772;31;883;-77
2022/07/29 01:26:58;;;;;;;418.35;376.48;;;;;;;25.17;59.61;99640.03;306124;32;1374;-77
2022/07/29 01:27:26;;;;;;;422.77;380.60;;;;;;;25.19;59.32;99638.03;306186;32;1585;-77
2022/07/29 01:27:59;;;;;;;406.86;365.16;;;;;;;25.20;59.54;99631.69;305653;32;2750;-78
2022/07/29 01:28:24;;;;;;;410.13;368.38;;;;;;;25.22;59.26;99635.06;303110;32;1534;-78
2022/07/29 01:28:59;;;;;;;410.65;368.73;;;;;;;25.24;59.51;99632.22;304341;32;2649;-78
2022/07/29 01:29:17;;;;;;;404.13;362.60;;;;;;;25.25;59.43;99637.41;304077;32;1447;-78
2022/07/29 01:29:39;;;;;;;401.30;359.58;;;;;;;25.22;59.71;99632.38;300722;32;1682;-78
2022/07/29 01:29:52;;;;;;;414.80;372.67;;;;;;;25.22;59.75;99632.38;302282;32;3384;-78
2022/07/29 01:30:03;;;;;;;416.58;374.27;;;;;;;25.23;59.83;99642.09;301740;32;2457;-78
2022/07/29 01:30:13;;;;;;;415.30;372.73;;;;;;;25.24;59.87;99633.06;300406;32;2435;-78
2022/07/29 01:30:23;;;;;;;415.05;372.17;;;;;;;25.22;59.71;99628.84;296912;33;858;-78
2022/07/29 01:30:34;;;;;;;414.07;370.90;;;;;;;25.24;60.08;99638.41;299943;32;3344;-78
2022/07/29 01:30:44;;;;;;;412.45;369.35;;;;;;;25.21;59.75;99633.38;300543;32;3266;-78
2022/07/29 01:30:55;;;;;;;414.93;371.73;;;;;;;25.23;59.96;99639.41;298590;33;1511;-78
2022/07/29 01:31:05;;;;;;;414.88;371.92;;;;;;;25.23;60.11;99636.72;299113;32;3474;-78
2022/07/29 01:31:17;;;;;;;419.00;376.03;;;;;;;25.23;60.14;99631.38;295141;33;3664;-78
2022/07/29 01:31:51;;;;;;;420.15;377.42;;;;;;;25.22;60.12;99635.06;292460;33;1408;-78
2022/07/29 01:32:12;;;;;;;406.95;365.23;;;;;;;25.20;60.20;99629.84;289645;33;4541;-78
2022/07/29 01:32:25;;;;;;;407.50;365.48;;;;;;;25.20;60.11;99629.00;286284;34;3292;-77
2022/07/29 01:32:36;;;;;;;413.05;370.85;;;;;;;25.21;59.89;99636.06;289762;33;4153;-77
2022/07/29 01:32:47;;;;;;;411.83;369.48;;;;;;;25.19;59.97;99633.53;288503;33;4134;-77
2022/07/29 01:33:00;;;;;;;412.73;370.40;;;;;;;25.18;60.16;99639.03;283678;34;4531;-77
2022/07/29 01:33:48;;;;;;;414.40;371.85;;;;;;;25.15;60.53;99634.81;281375;35;1513;-77
2022/07/29 01:33:48;;;;;;;416.77;374.35;;;;;;;25.09;60.46;99635.47;279048;34;4933;-77
2022/07/29 01:34:01;;;;;;;413.23;370.92;;;;;;;25.08;60.49;99633.78;278238;35;6026;-77
2022/07/29 01:34:17;;;;;;;418.10;375.52;;;;;;;25.06;60.42;99638.47;277944;35;1332;-77
2022/07/29 01:34:50;;;;;;;422.10;379.67;;;;;;;25.03;61.01;99641.44;272976;35;4001;-77
2022/07/29 01:35:10;;;;;;;424.52;381.77;;;;;;;24.98;60.89;99637.53;269803;36;6041;-77
2022/07/29 01:35:25;;;;;;;426.27;383.10;;;;;;;24.96;61.02;99631.50;270651;36;6818;-77
2022/07/29 01:35:39;;;;;;;424.25;381.30;;;;;;;24.98;61.28;99641.06;267887;36;6534;-77
2022/07/29 01:37:30;;;;;;;391.59;341.80;;;;;;;24.95;61.04;99635.16;2495128;27;20263;-76
2022/07/29 01:37:59;;;;;;;419.77;377.15;;;;;;;24.96;60.73;99632.34;351475;28;919;-76
2022/07/29 01:38:13;;;;;;;422.42;380.30;;;;;;;24.94;60.99;99630.78;351501;28;1062;-76
2022/07/29 01:38:23;;;;;;;419.60;377.45;;;;;;;24.92;60.97;99625.59;350153;28;1392;-76
2022/07/29 01:38:34;;;;;;;422.63;379.93;;;;;;;24.91;60.88;99633.75;347306;28;1327;-76
2022/07/29 01:38:46;;;;;;;424.70;381.55;;;;;;;24.89;60.88;99631.25;348762;28;979;-76
2022/07/29 01:39:09;;;;;;;426.10;382.58;;;;;;;24.84;61.25;99631.69;346971;28;1374;-76
2022/07/29 01:39:25;;;;;;;423.02;379.92;;;;;;;24.81;61.10;99634.69;341914;28;942;-76
2022/07/29 01:39:36;;;;;;;429.02;385.73;;;;;;;24.78;61.27;99629.63;343392;28;861;-76
2022/07/29 01:39:48;;;;;;;433.52;390.23;;;;;;;24.77;61.44;99638.66;344441;28;1209;-76
2022/07/29 01:39:59;;;;;;;432.28;389.12;;;;;;;24.76;61.46;99631.63;343031;28;1126;-77
2022/07/29 01:40:16;;;;;;;434.90;391.80;;;;;;;24.76;61.11;99636.13;344670;28;931;-77
2022/07/29 01:40:31;;;;;;;435.48;392.65;;;;;;;24.72;61.36;99622.22;344616;28;1314;-77
2022/07/29 01:40:49;;;;;;;432.80;390.08;;;;;;;24.71;61.38;99623.19;345004;28;1461;-77
2022/07/29 01:41:05;;;;;;;426.55;384.02;;;;;;;24.71;61.48;99623.19;346615;28;1436;-77
2022/07/29 01:41:16;;;;;;;434.38;391.45;;;;;;;24.72;61.22;99627.56;347340;28;1267;-77
2022/07/29 01:41:26;;;;;;;440.90;397.48;;;;;;;24.73;61.30;99621.22;349101;28;869;-77
2022/07/29 01:41:39;;;;;;;443.67;400.15;;;;;;;24.73;61.12;99623.88;346092;28;1200;-77
2022/07/29 01:41:59;;;;;;;438.55;395.13;;;;;;;24.74;61.31;99622.91;347356;28;1291;-77
2022/07/29 01:42:21;;;;;;;433.70;390.50;;;;;;;24.76;61.53;99620.91;346046;28;904;-77
2022/07/29 01:42:35;;;;;;;426.38;383.65;;;;;;;24.79;60.98;99627.78;345927;28;1508;-77
2022/07/29 01:42:50;;;;;;;430.33;387.52;;;;;;;24.79;61.05;99631.31;344569;28;920;-77
2022/07/29 01:43:12;;;;;;;429.65;387.05;;;;;;;24.81;60.87;99631.16;345143;28;929;-77
2022/07/29 01:43:38;;;;;;;435.15;392.30;;;;;;;24.82;60.71;99624.81;341891;28;1028;-78
2022/07/29 01:43:57;;;;;;;434.17;391.00;;;;;;;24.78;60.59;99618.91;337660;29;1188;-77
2022/07/29 01:44:13;;;;;;;436.20;392.88;;;;;;;24.79;60.60;99620.59;336759;29;1116;-77
2022/07/29 01:44:30;;;;;;;440.60;397.15;;;;;;;24.81;60.53;99625.81;337151;29;1396;-77
2022/07/29 01:44:49;;;;;;;441.10;397.92;;;;;;;24.77;60.91;99622.59;335303;29;1283;-77
2022/07/29 01:45:12;;;;;;;440.15;397.00;;;;;;;24.76;61.02;99626.25;335094;29;1352;-77
2022/07/29 01:45:47;;;;;;;434.30;391.60;;;;;;;24.77;60.80;99630.63;328973;30;1288;-77
2022/07/29 01:46:06;;;;;;;429.20;386.77;;;;;;;24.72;60.91;99627.56;329835;29;1681;-77
2022/07/29 01:46:23;;;;;;;439.15;395.90;;;;;;;24.75;61.02;99629.94;332264;29;1479;-77
2022/07/29 01:46:35;;;;;;;445.85;402.30;;;;;;;24.76;60.97;99626.25;329058;29;1458;-77
2022/07/29 01:46:49;;;;;;;442.55;399.05;;;;;;;24.79;60.89;99630.47;328203;29;1481;-77
2022/07/29 01:47:02;;;;;;;442.02;398.70;;;;;;;24.78;60.90;99634.97;328901;30;1317;-77
2022/07/29 01:47:23;;;;;;;447.55;404.05;;;;;;;24.80;60.76;99622.28;326739;30;1435;-77
2022/07/29 01:47:55;;;;;;;449.38;405.92;;;;;;;24.81;60.92;99632.00;329616;29;1291;-77
2022/07/29 01:48:16;;;;;;;441.38;397.90;;;;;;;24.84;60.92;99625.50;328782;29;1366;-76
2022/07/29 01:48:46;;;;;;;439.35;396.20;;;;;;;24.85;60.65;99624.50;324692;30;1691;-76
2022/07/29 01:49:08;;;;;;;441.80;398.65;;;;;;;24.80;60.53;99622.28;327773;30;1381;-76
2022/07/29 01:49:21;;;;;;;442.08;398.80;;;;;;;24.80;60.85;99622.28;327338;30;1587;-76
2022/07/29 01:49:35;;;;;;;437.95;394.83;;;;;;;24.81;60.46;99623.97;322595;30;1911;-76
2022/07/29 01:49:47;;;;;;;440.80;397.67;;;;;;;24.80;60.77;99627.66;319991;30;2030;-76
2022/07/29 01:49:58;;;;;;;444.75;401.42;;;;;;;24.82;60.63;99624.81;321752;30;2371;-76
2022/07/29 01:50:13;;;;;;;445.83;402.42;;;;;;;24.81;60.64;99623.13;326682;30;1286;-76
2022/07/29 01:50:28;;;;;;;438.80;395.63;;;;;;;24.80;60.73;99616.94;322019;30;991;-77
2022/07/29 01:50:48;;;;;;;431.13;388.20;;;;;;;24.79;60.96;99625.97;320744;30;1423;-77
2022/07/29 01:51:00;;;;;;;430.92;388.10;;;;;;;24.80;61.11;99624.97;314025;31;1291;-78
2022/07/29 01:51:14;;;;;;;440.35;397.10;;;;;;;24.78;60.99;99624.28;314977;31;1817;-78
2022/07/29 01:51:32;;;;;;;447.48;403.58;;;;;;;24.79;60.96;99625.13;315571;31;2375;-78
2022/07/29 01:51:51;;;;;;;449.42;405.55;;;;;;;24.77;61.13;99622.59;312229;31;2697;-78
2022/07/29 01:52:08;;;;;;;445.25;401.67;;;;;;;24.74;61.15;99625.56;307568;31;3252;-78
2022/07/29 01:52:25;;;;;;;455.42;411.63;;;;;;;24.76;61.08;99626.25;306366;32;3082;-79
2022/07/29 01:52:44;;;;;;;453.73;409.88;;;;;;;24.78;60.80;99620.75;307355;32;1112;-78
2022/07/29 01:52:59;;;;;;;447.33;403.63;;;;;;;24.77;60.62;99617.25;305381;32;2475;-78
2022/07/29 01:53:10;;;;;;;443.00;399.92;;;;;;;24.76;60.39;99623.59;302335;32;2007;-78
2022/07/29 01:53:28;;;;;;;445.63;402.63;;;;;;;24.79;60.48;99625.13;302104;32;802;-78
2022/07/29 01:53:44;;;;;;;444.73;401.70;;;;;;;24.78;60.63;99623.44;297966;33;1425;-78
2022/07/29 01:54:29;;;;;;;438.17;395.13;;;;;;;24.77;60.77;99622.59;294577;33;3567;-78
2022/07/29 01:54:43;;;;;;;432.95;390.38;;;;;;;24.76;60.92;99620.91;289981;34;916;-78
2022/07/29 01:54:55;;;;;;;440.38;397.40;;;;;;;24.76;60.59;99620.91;290942;34;1461;-78
2022/07/29 01:55:16;;;;;;;447.23;403.98;;;;;;;24.78;60.83;99624.28;292647;33;1422;-78
2022/07/29 01:55:29;;;;;;;450.52;406.90;;;;;;;24.76;60.64;99625.41;284430;34;3204;-78
2022/07/29 01:55:41;;;;;;;449.45;406.00;;;;;;;24.77;60.93;99627.09;280893;34;4460;-78
2022/07/29 01:55:52;;;;;;;442.33;399.00;;;;;;;24.74;60.85;99625.56;281525;35;1314;-78
2022/07/29 01:56:02;;;;;;;443.00;399.53;;;;;;;24.71;60.63;99623.19;280503;34;5933;-78
2022/07/29 01:56:13;;;;;;;445.65;401.95;;;;;;;24.70;60.99;99624.19;282025;34;6446;-78
2022/07/29 01:56:23;;;;;;;451.17;407.35;;;;;;;24.67;60.74;99624.53;281638;35;1363;-78
2022/07/29 01:56:34;;;;;;;447.67;404.03;;;;;;;24.66;60.74;99628.19;277090;35;6852;-78
2022/07/29 01:56:45;;;;;;;447.05;403.52;;;;;;;24.64;60.68;99632.88;278472;34;6307;-78
2022/07/29 01:56:56;;;;;;;443.92;400.52;;;;;;;24.63;60.76;99624.97;275006;35;6196;-78
2022/07/29 01:57:07;;;;;;;443.30;400.10;;;;;;;24.63;60.96;99628.50;271936;36;1434;-78
2022/07/29 01:57:18;;;;;;;452.13;408.73;;;;;;;24.62;60.56;99629.50;271035;36;5599;-78
2022/07/29 01:57:29;;;;;;;457.33;413.35;;;;;;;24.61;60.45;99624.28;274199;35;4795;-78
2022/07/29 01:57:40;;;;;;;457.55;413.30;;;;;;;24.65;60.64;99629.19;273439;35;5532;-78
2022/07/29 01:57:50;;;;;;;454.35;410.15;;;;;;;24.66;60.57;99630.88;270406;36;1039;-78
2022/07/29 01:58:01;;;;;;;454.77;410.63;;;;;;;24.67;60.39;99621.84;269130;36;6598;-78
2022/07/29 01:58:12;;;;;;;458.30;414.15;;;;;;;24.67;60.75;99629.88;266105;36;8682;-78
2022/07/29 01:58:22;;;;;;;460.75;416.52;;;;;;;24.66;60.26;99630.88;267221;37;916;-78
2022/07/29 01:58:33;;;;;;;464.33;420.07;;;;;;;24.66;60.41;99625.53;265335;37;10748;-77
2022/07/29 02:00:47;;;;;;;419.56;373.20;;;;;;;24.64;60.56;99622.16;2492634;27;20490;-76
2022/07/29 02:00:58;;;;;;;454.67;411.37;;;;;;;24.63;60.48;99631.19;351339;28;1321;-76
2022/07/29 02:01:09;;;;;;;455.02;411.67;;;;;;;24.64;60.81;99629.34;350012;28;1231;-76
2022/07/29 02:01:19;;;;;;;450.98;407.67;;;;;;;24.62;60.69;99624.13;351452;28;1237;-76
2022/07/29 02:01:31;;;;;;;448.60;405.33;;;;;;;24.60;60.80;99631.47;347314;28;1428;-76
2022/07/29 02:01:41;;;;;;;447.08;403.80;;;;;;;24.58;60.67;99629.94;350270;28;1290;-76
2022/07/29 02:01:53;;;;;;;454.52;410.98;;;;;;;24.54;60.94;99632.09;348534;28;1505;-76
2022/07/29 02:02:03;;;;;;;458.08;414.10;;;;;;;24.51;61.22;99629.72;347369;28;1308;-76
2022/07/29 02:02:15;;;;;;;464.57;420.17;;;;;;;24.54;61.02;99621.38;349786;28;1271;-76
2022/07/29 02:02:26;;;;;;;466.60;422.10;;;;;;;24.52;61.26;99634.06;348540;28;1283;-78
2022/07/29 02:02:37;;;;;;;468.40;424.08;;;;;;;24.51;61.25;99627.88;346035;28;1407;-77
2022/07/29 02:02:48;;;;;;;467.45;422.95;;;;;;;24.50;61.30;99630.69;347679;28;852;-77
2022/07/29 02:03:09;;;;;;;461.88;417.50;;;;;;;24.50;61.20;99625.34;348729;28;1216;-77
2022/07/29 02:03:19;;;;;;;462.30;418.17;;;;;;;24.51;60.93;99635.06;346607;28;912;-77
2022/07/29 02:03:30;;;;;;;464.90;420.67;;;;;;;24.49;60.96;99631.69;347457;28;1196;-77
2022/07/29 02:03:42;;;;;;;465.40;421.13;;;;;;;24.47;60.91;99623.81;345918;28;846;-77
2022/07/29 02:03:53;;;;;;;466.60;422.55;;;;;;;24.48;61.22;99630.00;348661;28;1266;-77
2022/07/29 02:04:04;;;;;;;464.53;420.57;;;;;;;24.48;61.05;99621.97;348675;28;1360;-77
2022/07/29 02:04:14;;;;;;;466.95;423.02;;;;;;;24.50;60.92;99628.03;348368;28;1171;-77
2022/07/29 02:04:24;;;;;;;466.70;422.77;;;;;;;24.48;61.00;99632.69;345036;28;1259;-78
2022/07/29 02:04:35;;;;;;;467.33;423.17;;;;;;;24.48;61.11;99627.34;349897;28;1316;-77
2022/07/29 02:04:48;;;;;;;461.00;416.88;;;;;;;24.48;60.88;99632.69;348745;28;1401;-77
2022/07/29 02:04:59;;;;;;;459.48;415.30;;;;;;;24.50;60.71;99631.53;343152;28;1355;-77
2022/07/29 02:05:11;;;;;;;462.73;418.38;;;;;;;24.51;60.70;99627.03;343069;28;1403;-77
2022/07/29 02:05:22;;;;;;;460.13;415.88;;;;;;;24.48;60.72;99621.97;342003;28;915;-77
2022/07/29 02:05:32;;;;;;;462.65;418.27;;;;;;;24.52;60.57;99626.03;343279;28;1320;-77
2022/07/29 02:05:43;;;;;;;463.15;418.70;;;;;;;24.50;60.58;99625.34;342031;28;861;-77
2022/07/29 02:05:53;;;;;;;467.07;422.37;;;;;;;24.51;60.73;99621.69;345153;28;1311;-77
2022/07/29 02:06:04;;;;;;;461.40;416.95;;;;;;;24.50;60.16;99630.69;345839;28;1333;-77
2022/07/29 02:06:17;;;;;;;460.53;416.37;;;;;;;24.50;60.37;99631.53;341994;28;920;-78
2022/07/29 02:06:27;;;;;;;453.95;410.38;;;;;;;24.51;60.10;99629.72;344013;28;1410;-77
2022/07/29 02:06:38;;;;;;;453.37;409.87;;;;;;;24.52;60.14;99623.38;341865;28;1242;-77
2022/07/29 02:06:49;;;;;;;454.30;410.67;;;;;;;24.52;60.23;99618.84;342009;28;1205;-77
2022/07/29 02:07:05;;;;;;;458.33;414.45;;;;;;;24.52;59.93;99624.22;341734;28;1262;-77
2022/07/29 02:07:20;;;;;;;459.20;415.23;;;;;;;24.52;60.07;99623.38;344062;28;1922;-77
2022/07/29 02:07:30;;;;;;;453.40;409.35;;;;;;;24.54;59.80;99622.22;344244;28;1403;-77
2022/07/29 02:07:41;;;;;;;452.63;408.63;;;;;;;24.55;59.99;99625.75;343136;28;866;-77